Magnolia, Iowa
Current Conditions -  °F | °C
As of 12:54 PM on Friday 21 Nov 2014 (Local Time) from KTQE Reporting Station
Clear Clear  
Wind Chill: 29°   Ceiling: Unl
Heat Index: 38°   Visibility: 10mi
Dew Point: 24°   Wind: 17mph
Humidity: 57%   Direction: 190°S
Pressure: 30.09"   Gusts: NA
Location:  41.7°N, 95.88°W
Report Text: KTQE 211854Z AUTO 19015KT 10SM CLR 03/M04 A3009 RMK AO2 SLP200 T00331044
Loading
Personal Weather Stations






























Interactive Weather Map New forecast layout! Learn more

10-Day Weather Forecast

Advertisements
Track Severe Weather on mobile